createdAt,value
2022-12-05T00:00:00.221Z,15.7
2022-12-05T00:05:00.157Z,15.5
2022-12-05T00:10:00.403Z,16.4
2022-12-05T00:15:00.179Z,16.7
2022-12-05T00:20:00.522Z,14.7
2022-12-05T00:25:00.166Z,15.7
2022-12-05T00:30:00.494Z,15.1
2022-12-05T00:35:00.175Z,15.2
2022-12-05T00:40:00.418Z,16.6
2022-12-05T00:45:00.162Z,16.7
2022-12-05T00:50:00.384Z,17.6
2022-12-05T00:55:00.168Z,16.8
2022-12-05T01:00:00.288Z,17.0
2022-12-05T01:05:00.154Z,19.0
2022-12-05T01:10:00.239Z,17.2
2022-12-05T01:15:00.161Z,17.2
2022-12-05T01:20:00.325Z,17.2
2022-12-05T01:25:00.167Z,18.1
2022-12-05T01:30:00.323Z,17.2
2022-12-05T01:35:00.163Z,17.3
2022-12-05T01:40:00.177Z,16.3
2022-12-05T01:45:00.160Z,17.0
2022-12-05T01:50:00.439Z,15.5
2022-12-05T01:55:00.183Z,16.9
2022-12-05T02:00:00.505Z,15.8
2022-12-05T02:05:00.171Z,16.0
2022-12-05T02:10:00.361Z,15.5
2022-12-05T02:15:00.190Z,16.0
2022-12-05T02:20:00.404Z,15.5
2022-12-05T02:25:00.187Z,16.3
2022-12-05T02:30:00.529Z,16.3
2022-12-05T02:35:00.166Z,15.1
2022-12-05T02:40:00.559Z,15.4
2022-12-05T02:45:00.159Z,15.8
2022-12-05T02:50:00.535Z,14.4
2022-12-05T02:55:00.168Z,14.2
2022-12-05T03:00:00.459Z,13.3
2022-12-05T03:05:00.153Z,14.9
2022-12-05T03:10:00.479Z,15.3
2022-12-05T03:15:00.165Z,13.8
2022-12-05T03:20:00.760Z,13.7
2022-12-05T03:25:00.161Z,14.0
2022-12-05T03:30:00.505Z,0.0
2022-12-05T03:35:00.177Z,10.0
2022-12-05T03:40:00.325Z,13.0
2022-12-05T03:45:00.176Z,13.2
2022-12-05T03:50:00.429Z,12.5
2022-12-05T03:55:00.166Z,12.9
2022-12-05T04:00:00.611Z,13.0
2022-12-05T04:05:00.170Z,12.6
2022-12-05T04:10:00.743Z,12.5
2022-12-05T04:15:00.193Z,13.8
2022-12-05T04:20:00.476Z,13.3
2022-12-05T04:25:00.167Z,13.5
2022-12-05T04:30:00.618Z,12.5
2022-12-05T04:35:00.180Z,14.3
2022-12-05T04:40:00.346Z,13.7
2022-12-05T04:45:00.168Z,14.1
2022-12-05T04:50:00.535Z,13.3
2022-12-05T04:55:00.177Z,14.4
2022-12-05T05:00:00.769Z,13.5
2022-12-05T05:05:00.180Z,13.3
2022-12-05T05:10:00.403Z,13.0
2022-12-05T05:15:00.180Z,14.3
2022-12-05T05:20:00.482Z,14.3
2022-12-05T05:25:00.164Z,15.1
2022-12-05T05:30:00.465Z,13.1
2022-12-05T05:35:00.170Z,13.2
2022-12-05T05:40:02.048Z,14.2
2022-12-05T05:45:00.183Z,14.9
2022-12-05T05:50:00.672Z,13.6
2022-12-05T06:20:00.528Z,14.3
2022-12-05T06:25:00.197Z,15.0
2022-12-05T06:30:00.683Z,11.8
2022-12-05T06:35:00.188Z,12.7
2022-12-05T06:40:00.620Z,12.4
2022-12-05T06:45:00.234Z,13.3
2022-12-05T06:50:00.394Z,13.7
2022-12-05T06:55:00.192Z,12.6
2022-12-05T07:00:00.410Z,13.8
2022-12-05T07:05:00.181Z,13.4
2022-12-05T07:10:00.630Z,13.1
2022-12-05T07:15:00.198Z,13.5
2022-12-05T07:20:00.597Z,13.6
2022-12-05T07:25:00.170Z,13.5
2022-12-05T07:30:00.436Z,12.4
2022-12-05T07:35:00.234Z,12.6
2022-12-05T07:40:00.644Z,12.1
2022-12-05T07:45:00.165Z,12.3
2022-12-05T07:50:00.499Z,13.0
2022-12-05T07:55:00.165Z,13.1
2022-12-05T08:00:00.489Z,11.9
2022-12-05T08:05:00.168Z,13.3
2022-12-05T08:10:00.365Z,12.5
2022-12-05T08:15:00.167Z,12.5
2022-12-05T08:20:00.469Z,12.9
2022-12-05T08:25:00.165Z,13.3
2022-12-05T08:30:00.441Z,12.1
2022-12-05T08:35:00.165Z,12.0
2022-12-05T08:40:00.454Z,13.1
2022-12-05T08:45:00.520Z,11.9
2022-12-05T08:50:00.611Z,13.4
2022-12-05T08:55:00.618Z,12.8
2022-12-05T09:00:00.196Z,12.8
2022-12-05T09:05:13.656Z,11.9
2022-12-05T09:10:00.181Z,11.6
2022-12-05T09:15:00.556Z,12.1
2022-12-05T09:20:00.185Z,12.0
2022-12-05T09:25:00.444Z,11.2
2022-12-05T09:30:00.198Z,12.5
2022-12-05T09:35:00.529Z,12.8
2022-12-05T09:40:00.174Z,13.0
2022-12-05T09:45:00.443Z,12.2
2022-12-05T09:50:00.200Z,11.7
2022-12-05T09:55:00.302Z,10.8
2022-12-05T10:00:00.221Z,10.8
2022-12-05T10:05:00.800Z,10.9
2022-12-05T10:10:00.166Z,10.9
2022-12-05T10:15:00.550Z,11.0
2022-12-05T10:20:00.169Z,10.0
2022-12-05T10:25:00.559Z,10.3
2022-12-05T10:30:00.173Z,9.5
2022-12-05T10:35:00.384Z,9.2
2022-12-05T10:40:00.177Z,9.6
2022-12-05T10:45:00.639Z,8.0
2022-12-05T10:50:00.187Z,7.3
2022-12-05T10:55:00.460Z,5.9
2022-12-05T11:00:00.187Z,5.1
2022-12-05T11:05:00.551Z,5.1
2022-12-05T11:10:00.167Z,4.1
2022-12-05T11:15:00.531Z,4.6
2022-12-05T11:20:00.167Z,4.1
2022-12-05T11:25:00.488Z,3.9
2022-12-05T11:30:00.173Z,3.2
2022-12-05T11:35:00.486Z,3.9
2022-12-05T11:40:00.165Z,3.4
2022-12-05T11:45:00.458Z,3.3
2022-12-05T11:50:00.172Z,2.8
2022-12-05T11:55:05.390Z,3.3
2022-12-05T12:00:00.541Z,3.4
2022-12-05T12:05:00.558Z,2.9
2022-12-05T12:10:00.271Z,3.6
2022-12-05T12:15:00.594Z,3.4
2022-12-05T12:20:00.175Z,3.4
2022-12-05T12:25:00.442Z,3.9
2022-12-05T12:30:00.190Z,3.7
2022-12-05T12:35:00.534Z,3.6
2022-12-05T12:40:00.161Z,3.2
2022-12-05T12:45:00.676Z,3.7
2022-12-05T12:50:00.177Z,3.2
2022-12-05T12:55:04.670Z,3.5
2022-12-05T13:00:00.495Z,3.1
2022-12-05T13:05:00.614Z,3.2
2022-12-05T13:10:00.174Z,3.1
2022-12-05T13:15:00.650Z,3.4
2022-12-05T13:20:00.176Z,3.3
2022-12-05T13:25:00.534Z,3.4
2022-12-05T13:30:00.713Z,3.2
2022-12-05T13:35:00.181Z,4.2
2022-12-05T13:40:00.589Z,4.0
2022-12-05T13:45:00.166Z,4.4
2022-12-05T13:50:00.566Z,4.3
2022-12-05T13:55:00.183Z,3.8
2022-12-05T14:00:00.673Z,4.2
2022-12-05T14:05:00.180Z,3.3
2022-12-05T14:10:00.726Z,3.9
2022-12-05T14:15:00.167Z,3.4
2022-12-05T14:20:00.631Z,3.5
2022-12-05T14:25:00.169Z,3.9
2022-12-05T14:30:00.477Z,3.5
2022-12-05T14:35:00.163Z,3.8
2022-12-05T14:40:00.633Z,3.6
2022-12-05T14:45:00.165Z,3.7
2022-12-05T14:50:00.475Z,3.8
2022-12-05T14:55:00.180Z,3.5
2022-12-05T15:00:00.545Z,0.0
2022-12-05T15:05:00.175Z,3.6
2022-12-05T15:10:00.613Z,3.7
2022-12-05T15:15:00.566Z,3.3
2022-12-05T15:20:00.692Z,3.6
2022-12-05T15:25:00.654Z,3.9
2022-12-05T15:30:00.180Z,3.7
2022-12-05T15:35:00.430Z,3.7
2022-12-05T15:40:00.195Z,3.4
2022-12-05T15:45:00.429Z,3.3
2022-12-05T15:50:00.555Z,2.5
2022-12-05T15:55:00.170Z,3.0
2022-12-05T16:00:00.720Z,3.0
2022-12-05T16:05:00.169Z,3.1
2022-12-05T16:10:00.504Z,3.0
2022-12-05T16:15:01.253Z,4.4
2022-12-05T16:20:00.566Z,3.0
2022-12-05T16:25:00.162Z,3.4
2022-12-05T16:30:00.418Z,2.8
2022-12-05T16:35:00.169Z,0.0
2022-12-05T16:40:00.436Z,3.2
2022-12-05T16:45:00.477Z,3.1
2022-12-05T16:50:00.174Z,3.0
2022-12-05T16:55:00.524Z,3.4
2022-12-05T17:00:00.179Z,3.4
2022-12-05T17:05:00.329Z,3.3
2022-12-05T17:10:00.176Z,3.6
2022-12-05T17:15:00.557Z,3.2
2022-12-05T17:20:00.183Z,3.4
2022-12-05T17:25:00.536Z,2.5
2022-12-05T17:30:00.491Z,3.3
2022-12-05T17:35:06.463Z,4.1
2022-12-05T17:40:00.432Z,2.5
2022-12-05T17:45:00.477Z,3.9
2022-12-05T17:50:00.496Z,3.1
2022-12-05T17:55:00.496Z,3.2
2022-12-05T18:00:00.181Z,4.0
2022-12-05T18:05:00.372Z,3.6
2022-12-05T18:10:00.166Z,3.8
2022-12-05T18:15:00.513Z,4.1
2022-12-05T18:20:00.169Z,3.6
2022-12-05T18:25:00.624Z,3.9
2022-12-05T18:30:00.186Z,4.1
2022-12-05T18:35:00.612Z,3.5
2022-12-05T18:40:00.178Z,4.0
2022-12-05T18:45:00.435Z,4.1
2022-12-05T18:50:00.179Z,3.7
2022-12-05T18:55:16.325Z,3.6
2022-12-05T19:00:00.176Z,3.5
2022-12-05T19:05:00.517Z,3.7
2022-12-05T19:10:00.210Z,3.4
2022-12-05T19:15:00.705Z,3.7
2022-12-05T19:20:00.171Z,3.6
2022-12-05T19:25:00.592Z,3.5
2022-12-05T19:30:03.834Z,3.8
2022-12-05T19:35:00.612Z,3.7
2022-12-05T19:40:00.505Z,3.6
2022-12-05T19:45:06.153Z,3.7
2022-12-05T19:50:00.438Z,3.4
2022-12-05T19:55:00.171Z,4.0
2022-12-05T20:00:00.630Z,4.2
2022-12-05T20:05:00.230Z,3.3
2022-12-05T20:10:00.485Z,3.6
2022-12-05T20:15:00.170Z,3.6
2022-12-05T20:20:00.456Z,0.0
2022-12-05T20:25:00.188Z,3.2
2022-12-05T20:30:00.500Z,3.3
2022-12-05T20:35:00.187Z,3.6
2022-12-05T20:40:00.450Z,3.7
2022-12-05T20:45:00.171Z,3.9
2022-12-05T20:50:00.425Z,3.4
2022-12-05T20:55:00.184Z,3.6
2022-12-05T21:00:00.569Z,3.8
2022-12-05T21:05:00.186Z,3.3
2022-12-05T21:10:04.891Z,3.1
2022-12-05T21:15:00.175Z,4.2
2022-12-05T21:20:00.534Z,3.8
2022-12-05T21:25:00.164Z,3.7
2022-12-05T21:35:00.214Z,3.0
2022-12-05T21:40:00.756Z,3.2
2022-12-05T21:45:00.517Z,3.0
2022-12-05T21:50:00.661Z,3.2
2022-12-05T21:55:00.196Z,3.0
2022-12-05T22:00:00.490Z,2.9
2022-12-05T22:05:00.206Z,3.3
2022-12-05T22:10:00.543Z,3.5
2022-12-05T22:15:00.192Z,3.7
2022-12-05T22:20:00.426Z,4.2
2022-12-05T22:25:00.460Z,3.8
2022-12-05T22:30:00.507Z,4.1
2022-12-05T22:35:03.803Z,4.2
2022-12-05T22:40:00.472Z,5.6
2022-12-05T22:45:00.199Z,4.2
2022-12-05T22:50:00.586Z,3.9
2022-12-05T22:55:00.601Z,4.2
2022-12-05T23:00:00.586Z,3.8
2022-12-05T23:05:00.202Z,3.9
2022-12-05T23:10:00.649Z,3.9
2022-12-05T23:15:00.195Z,3.2
2022-12-05T23:20:00.518Z,4.0
2022-12-05T23:25:00.165Z,3.2
2022-12-05T23:30:00.586Z,3.3
2022-12-05T23:35:00.185Z,3.1
2022-12-05T23:40:00.555Z,3.8
2022-12-05T23:45:00.170Z,4.0
2022-12-05T23:50:00.451Z,3.8
2022-12-05T23:55:00.173Z,3.8
